sensor_id;sensor_type;location;lat;lon;timestamp;pressure;altitude;pressure_sealevel;temperature;humidity
59103;BME280;43999;51.660;5.616;2023-09-19T00:00:45;100573.66;;;14.96;100.00
59103;BME280;43999;51.660;5.616;2023-09-19T00:03:35;100573.78;;;14.94;100.00
59103;BME280;43999;51.660;5.616;2023-09-19T00:06:25;100594.16;;;14.92;100.00
59103;BME280;43999;51.660;5.616;2023-09-19T00:09:18;100576.06;;;14.87;100.00
59103;BME280;43999;51.660;5.616;2023-09-19T00:12:06;100584.31;;;14.83;100.00
59103;BME280;43999;51.660;5.616;2023-09-19T00:14:56;100585.38;;;14.80;100.00
59103;BME280;43999;51.660;5.616;2023-09-19T00:17:44;100575.19;;;14.76;100.00
59103;BME280;43999;51.660;5.616;2023-09-19T00:20:32;100582.50;;;14.72;100.00
59103;BME280;43999;51.660;5.616;2023-09-19T00:23:22;100587.03;;;14.70;100.00
59103;BME280;43999;51.660;5.616;2023-09-19T00:26:10;100590.97;;;14.64;100.00
59103;BME280;43999;51.660;5.616;2023-09-19T00:28:59;100602.59;;;14.62;100.00
59103;BME280;43999;51.660;5.616;2023-09-19T00:31:55;100599.31;;;14.58;100.00
59103;BME280;43999;51.660;5.616;2023-09-19T00:34:44;100595.81;;;14.58;100.00
59103;BME280;43999;51.660;5.616;2023-09-19T00:37:32;100596.69;;;14.58;100.00
59103;BME280;43999;51.660;5.616;2023-09-19T00:40:20;100603.13;;;14.54;100.00
59103;BME280;43999;51.660;5.616;2023-09-19T00:43:08;100596.38;;;14.50;100.00
59103;BME280;43999;51.660;5.616;2023-09-19T00:45:56;100606.94;;;14.50;100.00
59103;BME280;43999;51.660;5.616;2023-09-19T00:48:44;100607.78;;;14.50;100.00
59103;BME280;43999;51.660;5.616;2023-09-19T00:51:34;100610.53;;;14.49;100.00
59103;BME280;43999;51.660;5.616;2023-09-19T00:54:23;100625.53;;;14.48;100.00
59103;BME280;43999;51.660;5.616;2023-09-19T00:57:14;100617.84;;;14.45;100.00
59103;BME280;43999;51.660;5.616;2023-09-19T01:00:03;100629.13;;;14.47;100.00
59103;BME280;43999;51.660;5.616;2023-09-19T01:02:55;100623.84;;;14.47;100.00
59103;BME280;43999;51.660;5.616;2023-09-19T01:05:43;100631.63;;;14.49;100.00
59103;BME280;43999;51.660;5.616;2023-09-19T01:08:31;100633.44;;;14.48;100.00
59103;BME280;43999;51.660;5.616;2023-09-19T01:11:38;100632.59;;;14.48;100.00
59103;BME280;43999;51.660;5.616;2023-09-19T01:15:05;100637.97;;;14.46;100.00
59103;BME280;43999;51.660;5.616;2023-09-19T01:22:03;100645.03;;;14.46;100.00
59103;BME280;43999;51.660;5.616;2023-09-19T01:31:43;100652.56;;;14.39;100.00
59103;BME280;43999;51.660;5.616;2023-09-19T01:34:50;100655.44;;;14.36;100.00
59103;BME280;43999;51.660;5.616;2023-09-19T01:37:46;100647.00;;;14.31;100.00
59103;BME280;43999;51.660;5.616;2023-09-19T01:40:44;100653.47;;;14.27;100.00
59103;BME280;43999;51.660;5.616;2023-09-19T01:43:42;100656.22;;;14.25;100.00
59103;BME280;43999;51.660;5.616;2023-09-19T01:46:40;100658.19;;;14.22;100.00
59103;BME280;43999;51.660;5.616;2023-09-19T01:49:56;100665.50;;;14.18;100.00
59103;BME280;43999;51.660;5.616;2023-09-19T01:53:22;100662.25;;;14.14;100.00
59103;BME280;43999;51.660;5.616;2023-09-19T01:56:25;100660.78;;;14.10;100.00
59103;BME280;43999;51.660;5.616;2023-09-19T01:59:34;100660.88;;;14.09;100.00
59103;BME280;43999;51.660;5.616;2023-09-19T02:02:25;100659.41;;;14.05;100.00
59103;BME280;43999;51.660;5.616;2023-09-19T02:05:23;100652.59;;;14.02;100.00
59103;BME280;43999;51.660;5.616;2023-09-19T02:08:21;100668.50;;;14.01;100.00
59103;BME280;43999;51.660;5.616;2023-09-19T02:11:13;100664.28;;;13.98;100.00
59103;BME280;43999;51.660;5.616;2023-09-19T02:14:01;100660.94;;;13.96;100.00
59103;BME280;43999;51.660;5.616;2023-09-19T02:16:49;100664.38;;;13.96;100.00
59103;BME280;43999;51.660;5.616;2023-09-19T02:19:39;100668.94;;;13.94;100.00
59103;BME280;43999;51.660;5.616;2023-09-19T02:22:28;100667.47;;;13.90;100.00
59103;BME280;43999;51.660;5.616;2023-09-19T02:25:16;100665.66;;;13.91;100.00
59103;BME280;43999;51.660;5.616;2023-09-19T02:28:04;100667.47;;;13.90;100.00
59103;BME280;43999;51.660;5.616;2023-09-19T02:30:52;100672.84;;;13.89;100.00
59103;BME280;43999;51.660;5.616;2023-09-19T02:33:40;100678.22;;;13.87;100.00
59103;BME280;43999;51.660;5.616;2023-09-19T02:36:29;100675.06;;;13.82;100.00
59103;BME280;43999;51.660;5.616;2023-09-19T02:39:18;100687.16;;;13.85;100.00
59103;BME280;43999;51.660;5.616;2023-09-19T02:42:06;100688.22;;;13.82;100.00
59103;BME280;43999;51.660;5.616;2023-09-19T02:44:54;100689.19;;;13.81;100.00
59103;BME280;43999;51.660;5.616;2023-09-19T02:47:42;100684.94;;;13.78;100.00
59103;BME280;43999;51.660;5.616;2023-09-19T02:50:30;100687.81;;;13.75;100.00
59103;BME280;43999;51.660;5.616;2023-09-19T02:53:20;100689.81;;;13.72;100.00
59103;BME280;43999;51.660;5.616;2023-09-19T02:56:08;100687.41;;;13.69;100.00
59103;BME280;43999;51.660;5.616;2023-09-19T02:58:57;100697.19;;;13.67;100.00
59103;BME280;43999;51.660;5.616;2023-09-19T03:01:45;100693.09;;;13.62;100.00
59103;BME280;43999;51.660;5.616;2023-09-19T03:04:35;100695.94;;;13.59;100.00
59103;BME280;43999;51.660;5.616;2023-09-19T03:07:24;100697.84;;;13.57;100.00
59103;BME280;43999;51.660;5.616;2023-09-19T03:10:13;100693.81;;;13.52;100.00
59103;BME280;43999;51.660;5.616;2023-09-19T03:13:03;100693.09;;;13.50;100.00
59103;BME280;43999;51.660;5.616;2023-09-19T03:15:54;100693.63;;;13.42;100.00
59103;BME280;43999;51.660;5.616;2023-09-19T03:18:48;100691.81;;;13.42;100.00
59103;BME280;43999;51.660;5.616;2023-09-19T03:21:37;100695.50;;;13.40;100.00
59103;BME280;43999;51.660;5.616;2023-09-19T03:24:26;100690.53;;;13.35;100.00
59103;BME280;43999;51.660;5.616;2023-09-19T03:27:14;100701.16;;;13.34;100.00
59103;BME280;43999;51.660;5.616;2023-09-19T03:30:04;100696.09;;;13.31;100.00
59103;BME280;43999;51.660;5.616;2023-09-19T03:32:56;100703.25;;;13.28;100.00
59103;BME280;43999;51.660;5.616;2023-09-19T03:35:54;100694.63;;;13.26;100.00
59103;BME280;43999;51.660;5.616;2023-09-19T03:38:43;100698.41;;;13.22;100.00
59103;BME280;43999;51.660;5.616;2023-09-19T03:41:31;100697.56;;;13.22;100.00
59103;BME280;43999;51.660;5.616;2023-09-19T03:44:21;100687.97;;;13.21;100.00
59103;BME280;43999;51.660;5.616;2023-09-19T03:47:10;100689.78;;;13.20;100.00
59103;BME280;43999;51.660;5.616;2023-09-19T03:49:59;100672.50;;;13.16;100.00
59103;BME280;43999;51.660;5.616;2023-09-19T03:52:47;100682.00;;;13.19;100.00
59103;BME280;43999;51.660;5.616;2023-09-19T03:55:34;100673.22;;;13.18;100.00
59103;BME280;43999;51.660;5.616;2023-09-19T03:58:23;100681.13;;;13.18;100.00
59103;BME280;43999;51.660;5.616;2023-09-19T04:01:12;100689.97;;;13.17;100.00
59103;BME280;43999;51.660;5.616;2023-09-19T04:04:01;100683.22;;;13.13;100.00
59103;BME280;43999;51.660;5.616;2023-09-19T04:06:56;100681.25;;;13.17;100.00
59103;BME280;43999;51.660;5.616;2023-09-19T04:09:45;100674.31;;;13.16;100.00
59103;BME280;43999;51.660;5.616;2023-09-19T04:12:33;100676.72;;;13.19;100.00
59103;BME280;43999;51.660;5.616;2023-09-19T04:15:21;100685.44;;;13.19;100.00
59103;BME280;43999;51.660;5.616;2023-09-19T04:18:14;100678.38;;;13.20;100.00
59103;BME280;43999;51.660;5.616;2023-09-19T04:21:02;100689.16;;;13.17;100.00
59103;BME280;43999;51.660;5.616;2023-09-19T04:23:51;100692.31;;;13.22;100.00
59103;BME280;43999;51.660;5.616;2023-09-19T04:26:39;100696.69;;;13.21;100.00
59103;BME280;43999;51.660;5.616;2023-09-19T04:29:27;100702.84;;;13.22;100.00
59103;BME280;43999;51.660;5.616;2023-09-19T04:32:16;100709.03;;;13.21;100.00
59103;BME280;43999;51.660;5.616;2023-09-19T04:35:08;100716.91;;;13.21;100.00
59103;BME280;43999;51.660;5.616;2023-09-19T04:37:58;100724.72;;;13.22;100.00
59103;BME280;43999;51.660;5.616;2023-09-19T04:40:47;100726.50;;;13.22;100.00
59103;BME280;43999;51.660;5.616;2023-09-19T04:43:35;100734.31;;;13.23;100.00
59103;BME280;43999;51.660;5.616;2023-09-19T04:46:22;100737.75;;;13.24;100.00
59103;BME280;43999;51.660;5.616;2023-09-19T04:49:10;100741.03;;;13.27;100.00
59103;BME280;43999;51.660;5.616;2023-09-19T04:51:58;100744.22;;;13.33;100.00
59103;BME280;43999;51.660;5.616;2023-09-19T04:54:46;100744.97;;;13.35;100.00
59103;BME280;43999;51.660;5.616;2023-09-19T04:57:35;100749.72;;;13.42;100.00
59103;BME280;43999;51.660;5.616;2023-09-19T05:00:30;100753.94;;;13.45;100.00
59103;BME280;43999;51.660;5.616;2023-09-19T05:03:23;100751.31;;;13.45;100.00
59103;BME280;43999;51.660;5.616;2023-09-19T05:06:10;100752.16;;;13.45;100.00
59103;BME280;43999;51.660;5.616;2023-09-19T05:08:58;100751.31;;;13.45;100.00
59103;BME280;43999;51.660;5.616;2023-09-19T05:11:47;100753.28;;;13.41;100.00
59103;BME280;43999;51.660;5.616;2023-09-19T05:14:35;100757.53;;;13.44;100.00
59103;BME280;43999;51.660;5.616;2023-09-19T05:17:23;100761.94;;;13.43;100.00
59103;BME280;43999;51.660;5.616;2023-09-19T05:20:12;100761.94;;;13.43;100.00
59103;BME280;43999;51.660;5.616;2023-09-19T05:23:11;100763.00;;;13.41;100.00
59103;BME280;43999;51.660;5.616;2023-09-19T05:25:59;100763.72;;;13.43;100.00
59103;BME280;43999;51.660;5.616;2023-09-19T05:28:47;100763.72;;;13.43;100.00
59103;BME280;43999;51.660;5.616;2023-09-19T05:31:38;100761.09;;;13.43;100.00
59103;BME280;43999;51.660;5.616;2023-09-19T05:34:28;100758.44;;;13.43;100.00
59103;BME280;43999;51.660;5.616;2023-09-19T05:37:17;100767.22;;;13.43;100.00
59103;BME280;43999;51.660;5.616;2023-09-19T05:40:06;100764.59;;;13.43;100.00
59103;BME280;43999;51.660;5.616;2023-09-19T05:42:57;100761.84;;;13.45;100.00
59103;BME280;43999;51.660;5.616;2023-09-19T05:45:45;100761.94;;;13.43;100.00
59103;BME280;43999;51.660;5.616;2023-09-19T05:48:32;100757.81;;;13.39;100.00
59103;BME280;43999;51.660;5.616;2023-09-19T05:51:20;100766.34;;;13.43;100.00
59103;BME280;43999;51.660;5.616;2023-09-19T05:54:09;100767.09;;;13.45;100.00
59103;BME280;43999;51.660;5.616;2023-09-19T05:56:58;100760.97;;;13.44;100.00
59103;BME280;43999;51.660;5.616;2023-09-19T05:59:46;100761.75;;;13.47;100.00
59103;BME280;43999;51.660;5.616;2023-09-19T06:02:39;100762.47;;;13.49;100.00
59103;BME280;43999;51.660;5.616;2023-09-19T06:05:28;100759.84;;;13.49;100.00
59103;BME280;43999;51.660;5.616;2023-09-19T06:08:19;100766.59;;;13.53;100.00
59103;BME280;43999;51.660;5.616;2023-09-19T06:11:06;100765.63;;;13.54;100.00
59103;BME280;43999;51.660;5.616;2023-09-19T06:13:54;100755.19;;;13.52;100.00
59103;BME280;43999;51.660;5.616;2023-09-19T06:16:42;100759.31;;;13.56;100.00
59103;BME280;43999;51.660;5.616;2023-09-19T06:19:30;100769.66;;;13.59;100.00
59103;BME280;43999;51.660;5.616;2023-09-19T06:22:19;100763.66;;;13.57;100.00
59103;BME280;43999;51.660;5.616;2023-09-19T06:25:07;100770.47;;;13.60;100.00
59103;BME280;43999;51.660;5.616;2023-09-19T06:27:58;100776.41;;;13.63;100.00
59103;BME280;43999;51.660;5.616;2023-09-19T06:30:46;100778.81;;;13.67;100.00
59103;BME280;43999;51.660;5.616;2023-09-19T06:33:35;100781.47;;;13.67;100.00
59103;BME280;43999;51.660;5.616;2023-09-19T06:36:28;100794.41;;;13.70;100.00
59103;BME280;43999;51.660;5.616;2023-09-19T06:39:16;100786.41;;;13.71;100.00
59103;BME280;43999;51.660;5.616;2023-09-19T06:42:04;100796.84;;;13.73;100.00
59103;BME280;43999;51.660;5.616;2023-09-19T06:44:52;100796.75;;;13.74;100.00
59103;BME280;43999;51.660;5.616;2023-09-19T06:47:40;100809.50;;;13.80;100.00
59103;BME280;43999;51.660;5.616;2023-09-19T06:50:28;100808.63;;;13.80;100.00
59103;BME280;43999;51.660;5.616;2023-09-19T06:53:17;100799.56;;;13.84;100.00
59103;BME280;43999;51.660;5.616;2023-09-19T06:56:07;100808.97;;;13.88;100.00
59103;BME280;43999;51.660;5.616;2023-09-19T06:58:55;100800.84;;;13.91;100.00
59103;BME280;43999;51.660;5.616;2023-09-19T07:01:43;100791.97;;;13.92;100.00
59103;BME280;43999;51.660;5.616;2023-09-19T07:04:32;100796.22;;;13.95;100.00
59103;BME280;43999;51.660;5.616;2023-09-19T07:07:20;100802.22;;;13.97;100.00
59103;BME280;43999;51.660;5.616;2023-09-19T07:10:08;100794.31;;;13.97;100.00
59103;BME280;43999;51.660;5.616;2023-09-19T07:13:05;100791.56;;;13.98;100.00
59103;BME280;43999;51.660;5.616;2023-09-19T07:16:01;100798.53;;;13.99;100.00
59103;BME280;43999;51.660;5.616;2023-09-19T07:18:49;100805.50;;;14.01;100.00
59103;BME280;43999;51.660;5.616;2023-09-19T07:21:37;100808.66;;;14.06;100.00
59103;BME280;43999;51.660;5.616;2023-09-19T07:24:26;100810.22;;;14.08;100.00
59103;BME280;43999;51.660;5.616;2023-09-19T07:27:15;100810.22;;;14.08;100.00
59103;BME280;43999;51.660;5.616;2023-09-19T07:30:04;100806.31;;;14.14;100.00
59103;BME280;43999;51.660;5.616;2023-09-19T07:32:54;100798.19;;;14.17;100.00
59103;BME280;43999;51.660;5.616;2023-09-19T07:35:48;100804.94;;;14.21;100.00
59103;BME280;43999;51.660;5.616;2023-09-19T07:38:36;100798.72;;;14.22;100.00
59103;BME280;43999;51.660;5.616;2023-09-19T07:41:24;100807.16;;;14.27;100.00
59103;BME280;43999;51.660;5.616;2023-09-19T07:44:12;100823.47;;;14.32;100.00
59103;BME280;43999;51.660;5.616;2023-09-19T07:47:00;100813.38;;;14.39;100.00
59103;BME280;43999;51.660;5.616;2023-09-19T07:49:50;100811.25;;;14.44;100.00
59103;BME280;43999;51.660;5.616;2023-09-19T07:52:38;100803.84;;;14.49;100.00
59103;BME280;43999;51.660;5.616;2023-09-19T07:55:26;100807.09;;;14.53;100.00
59103;BME280;43999;51.660;5.616;2023-09-19T07:58:14;100816.28;;;14.60;100.00
59103;BME280;43999;51.660;5.616;2023-09-19T08:01:07;100814.25;;;14.64;100.00
59103;BME280;43999;51.660;5.616;2023-09-19T08:03:57;100817.31;;;14.70;100.00
59103;BME280;43999;51.660;5.616;2023-09-19T08:06:46;100823.81;;;14.78;100.00
59103;BME280;43999;51.660;5.616;2023-09-19T08:09:33;100827.38;;;14.90;100.00
59103;BME280;43999;51.660;5.616;2023-09-19T08:12:21;100817.00;;;14.99;100.00
59103;BME280;43999;51.660;5.616;2023-09-19T08:15:10;100836.59;;;15.08;100.00
59103;BME280;43999;51.660;5.616;2023-09-19T08:17:58;100827.31;;;15.15;100.00
59103;BME280;43999;51.660;5.616;2023-09-19T08:20:52;100821.56;;;15.21;100.00
59103;BME280;43999;51.660;5.616;2023-09-19T08:23:41;100815.94;;;15.26;100.00
59103;BME280;43999;51.660;5.616;2023-09-19T08:26:29;100815.59;;;15.31;100.00
59103;BME280;43999;51.660;5.616;2023-09-19T08:29:21;100807.22;;;15.37;100.00
59103;BME280;43999;51.660;5.616;2023-09-19T08:32:17;100810.38;;;15.42;100.00
59103;BME280;43999;51.660;5.616;2023-09-19T08:35:07;100813.59;;;15.46;100.00
59103;BME280;43999;51.660;5.616;2023-09-19T08:37:56;100817.81;;;15.48;100.00
59103;BME280;43999;51.660;5.616;2023-09-19T08:40:44;100816.66;;;15.52;100.00
59103;BME280;43999;51.660;5.616;2023-09-19T08:43:33;100819.31;;;15.64;100.00
59103;BME280;43999;51.660;5.616;2023-09-19T08:46:27;100823.31;;;15.69;100.00
59103;BME280;43999;51.660;5.616;2023-09-19T08:49:33;100826.53;;;15.73;100.00
59103;BME280;43999;51.660;5.616;2023-09-19T08:52:43;100814.44;;;15.82;100.00
59103;BME280;43999;51.660;5.616;2023-09-19T08:55:36;100812.31;;;15.87;100.00
59103;BME280;43999;51.660;5.616;2023-09-19T08:58:33;100813.84;;;15.89;100.00
59103;BME280;43999;51.660;5.616;2023-09-19T09:01:29;100823.13;;;15.95;100.00
59103;BME280;43999;51.660;5.616;2023-09-19T09:04:26;100820.97;;;16.00;100.00
59103;BME280;43999;51.660;5.616;2023-09-19T09:07:16;100817.13;;;16.04;100.00
59103;BME280;43999;51.660;5.616;2023-09-19T09:10:07;100812.31;;;16.09;100.00
59103;BME280;43999;51.660;5.616;2023-09-19T09:12:55;100821.00;;;16.23;100.00
59103;BME280;43999;51.660;5.616;2023-09-19T09:15:48;100833.59;;;16.30;100.00
59103;BME280;43999;51.660;5.616;2023-09-19T09:18:38;100831.69;;;16.33;100.00
59103;BME280;43999;51.660;5.616;2023-09-19T09:21:26;100835.41;;;16.41;100.00
59103;BME280;43999;51.660;5.616;2023-09-19T09:24:31;100816.53;;;16.46;100.00
59103;BME280;43999;51.660;5.616;2023-09-19T09:27:27;100820.00;;;16.46;100.00
59103;BME280;43999;51.660;5.616;2023-09-19T09:30:37;100824.22;;;16.49;100.00
59103;BME280;43999;51.660;5.616;2023-09-19T09:33:25;100820.59;;;16.61;100.00
59103;BME280;43999;51.660;5.616;2023-09-19T09:36:14;100800.53;;;16.70;100.00
59103;BME280;43999;51.660;5.616;2023-09-19T09:39:02;100788.84;;;16.73;100.00
59103;BME280;43999;51.660;5.616;2023-09-19T09:42:04;100791.97;;;16.78;100.00
59103;BME280;43999;51.660;5.616;2023-09-19T09:45:23;100798.34;;;16.87;100.00
59103;BME280;43999;51.660;5.616;2023-09-19T09:48:38;100807.59;;;16.92;100.00
59103;BME280;43999;51.660;5.616;2023-09-19T09:51:30;100796.50;;;16.98;100.00
59103;BME280;43999;51.660;5.616;2023-09-19T09:54:18;100800.47;;;17.04;100.00
59103;BME280;43999;51.660;5.616;2023-09-19T09:57:10;100800.53;;;17.14;100.00
59103;BME280;43999;51.660;5.616;2023-09-19T10:00:04;100799.91;;;17.22;100.00
59103;BME280;43999;51.660;5.616;2023-09-19T10:02:58;100801.16;;;17.38;100.00
59103;BME280;43999;51.660;5.616;2023-09-19T10:05:53;100809.88;;;17.50;100.00
59103;BME280;43999;51.660;5.616;2023-09-19T10:09:07;100812.75;;;17.59;100.00
59103;BME280;43999;51.660;5.616;2023-09-19T10:12:11;100803.41;;;17.64;100.00
59103;BME280;43999;51.660;5.616;2023-09-19T10:15:02;100804.84;;;17.68;100.00
59103;BME280;43999;51.660;5.616;2023-09-19T10:17:54;100810.06;;;17.80;100.00
59103;BME280;43999;51.660;5.616;2023-09-19T10:20:45;100795.03;;;17.80;100.00
59103;BME280;43999;51.660;5.616;2023-09-19T10:23:34;100802.84;;;17.82;100.00
59103;BME280;43999;51.660;5.616;2023-09-19T10:26:26;100796.41;;;17.84;100.00
59103;BME280;43999;51.660;5.616;2023-09-19T10:29:18;100798.38;;;17.82;100.00
59103;BME280;43999;51.660;5.616;2023-09-19T10:32:08;100800.53;;;17.88;100.00
59103;BME280;43999;51.660;5.616;2023-09-19T10:34:58;100802.56;;;18.06;100.00
59103;BME280;43999;51.660;5.616;2023-09-19T10:37:50;100798.28;;;18.15;100.00
59103;BME280;43999;51.660;5.616;2023-09-19T10:40:41;100796.16;;;18.39;100.00
59103;BME280;43999;51.660;5.616;2023-09-19T10:43:32;100798.81;;;18.49;100.00
59103;BME280;43999;51.660;5.616;2023-09-19T10:46:23;100795.50;;;18.57;100.00
59103;BME280;43999;51.660;5.616;2023-09-19T10:49:13;100797.00;;;18.90;100.00
59103;BME280;43999;51.660;5.616;2023-09-19T10:52:01;100780.38;;;19.27;100.00
59103;BME280;43999;51.660;5.616;2023-09-19T10:54:52;100793.91;;;19.44;100.00
59103;BME280;43999;51.660;5.616;2023-09-19T10:57:45;100793.94;;;19.34;100.00
59103;BME280;43999;51.660;5.616;2023-09-19T11:00:51;100797.69;;;19.31;100.00
59103;BME280;43999;51.660;5.616;2023-09-19T11:03:43;100791.00;;;19.27;100.00
59103;BME280;43999;51.660;5.616;2023-09-19T11:06:32;100770.88;;;19.25;100.00
59103;BME280;43999;51.660;5.616;2023-09-19T11:09:21;100763.72;;;19.25;100.00
59103;BME280;43999;51.660;5.616;2023-09-19T11:16:02;100758.41;;;19.25;100.00
59103;BME280;43999;51.660;5.616;2023-09-19T11:18:52;100758.28;;;19.27;100.00
59103;BME280;43999;51.660;5.616;2023-09-19T11:21:41;100752.38;;;19.33;100.00
59103;BME280;43999;51.660;5.616;2023-09-19T11:24:30;100743.03;;;19.39;100.00
59103;BME280;43999;51.660;5.616;2023-09-19T11:27:18;100749.16;;;19.49;100.00
59103;BME280;43999;51.660;5.616;2023-09-19T11:30:26;100736.97;;;19.56;100.00
59103;BME280;43999;51.660;5.616;2023-09-19T11:33:27;100736.09;;;19.65;100.00
59103;BME280;43999;51.660;5.616;2023-09-19T11:36:35;100727.81;;;19.78;100.00
59103;BME280;43999;51.660;5.616;2023-09-19T11:39:26;100715.50;;;19.87;98.85
59103;BME280;43999;51.660;5.616;2023-09-19T11:42:44;100735.63;;;19.90;97.85
59103;BME280;43999;51.660;5.616;2023-09-19T11:48:45;100706.78;;;19.95;96.66
59103;BME280;43999;51.660;5.616;2023-09-19T11:51:41;100705.91;;;20.04;95.58
59103;BME280;43999;51.660;5.616;2023-09-19T11:54:35;100708.25;;;20.07;95.83
59103;BME280;43999;51.660;5.616;2023-09-19T11:57:28;100694.97;;;20.07;93.08
59103;BME280;43999;51.660;5.616;2023-09-19T12:00:19;100693.56;;;20.03;93.82
59103;BME280;43999;51.660;5.616;2023-09-19T12:03:10;100701.25;;;20.06;90.73
59103;BME280;43999;51.660;5.616;2023-09-19T12:05:59;100694.81;;;20.09;94.61
59103;BME280;43999;51.660;5.616;2023-09-19T12:08:51;100692.53;;;20.14;91.81
59103;BME280;43999;51.660;5.616;2023-09-19T12:11:42;100696.88;;;20.15;93.76
59103;BME280;43999;51.660;5.616;2023-09-19T12:14:33;100703.59;;;20.19;91.22
59103;BME280;43999;51.660;5.616;2023-09-19T12:17:22;100710.72;;;20.18;91.47
59103;BME280;43999;51.660;5.616;2023-09-19T12:20:11;100702.44;;;20.21;91.27
59103;BME280;43999;51.660;5.616;2023-09-19T12:23:13;100704.66;;;20.26;92.81
59103;BME280;43999;51.660;5.616;2023-09-19T12:26:02;100712.78;;;20.24;91.27
59103;BME280;43999;51.660;5.616;2023-09-19T12:29:00;100717.03;;;20.17;92.38
59103;BME280;43999;51.660;5.616;2023-09-19T12:32:00;100709.94;;;20.08;93.66
59103;BME280;43999;51.660;5.616;2023-09-19T12:34:52;100710.38;;;20.03;93.38
59103;BME280;43999;51.660;5.616;2023-09-19T12:37:45;100716.72;;;19.93;94.66
59103;BME280;43999;51.660;5.616;2023-09-19T12:40:40;100714.94;;;19.83;93.94
59103;BME280;43999;51.660;5.616;2023-09-19T12:43:31;100706.84;;;19.75;96.23
59103;BME280;43999;51.660;5.616;2023-09-19T12:46:23;100712.19;;;19.65;97.39
59103;BME280;43999;51.660;5.616;2023-09-19T12:49:20;100709.81;;;19.62;98.01
59103;BME280;43999;51.660;5.616;2023-09-19T12:52:08;100706.63;;;19.59;98.02
59103;BME280;43999;51.660;5.616;2023-09-19T12:54:57;100714.72;;;19.57;98.83
59103;BME280;43999;51.660;5.616;2023-09-19T13:00:53;100708.84;;;19.63;99.52
59103;BME280;43999;51.660;5.616;2023-09-19T13:03:43;100709.66;;;19.74;99.21
59103;BME280;43999;51.660;5.616;2023-09-19T13:06:37;100704.47;;;19.82;97.64
59103;BME280;43999;51.660;5.616;2023-09-19T13:09:28;100705.69;;;19.87;98.03
59103;BME280;43999;51.660;5.616;2023-09-19T13:12:36;100715.34;;;19.88;98.22
59103;BME280;43999;51.660;5.616;2023-09-19T13:15:27;100705.81;;;19.86;98.87
59103;BME280;43999;51.660;5.616;2023-09-19T13:18:17;100720.81;;;19.87;100.00
59103;BME280;43999;51.660;5.616;2023-09-19T13:21:10;100710.69;;;19.91;99.23
59103;BME280;43999;51.660;5.616;2023-09-19T13:24:24;100713.22;;;19.92;98.69
59103;BME280;43999;51.660;5.616;2023-09-19T13:27:17;100703.72;;;19.90;97.79
59103;BME280;43999;51.660;5.616;2023-09-19T13:30:06;100698.84;;;19.85;98.65
59103;BME280;43999;51.660;5.616;2023-09-19T13:33:11;100703.19;;;19.76;98.12
59103;BME280;43999;51.660;5.616;2023-09-19T13:36:01;100712.75;;;19.69;98.90
59103;BME280;43999;51.660;5.616;2023-09-19T13:38:49;100710.53;;;19.64;98.94
59103;BME280;43999;51.660;5.616;2023-09-19T13:41:37;100714.28;;;19.62;99.55
59103;BME280;43999;51.660;5.616;2023-09-19T13:44:25;100711.34;;;19.65;100.00
59103;BME280;43999;51.660;5.616;2023-09-19T13:47:17;100708.66;;;19.75;99.58
59103;BME280;43999;51.660;5.616;2023-09-19T13:50:13;100715.09;;;19.82;99.73
59103;BME280;43999;51.660;5.616;2023-09-19T13:53:02;100721.63;;;19.87;99.80
59103;BME280;43999;51.660;5.616;2023-09-19T13:55:50;100708.03;;;19.91;100.00
59103;BME280;43999;51.660;5.616;2023-09-19T13:58:38;100693.47;;;19.95;98.85
59103;BME280;43999;51.660;5.616;2023-09-19T14:01:27;100709.16;;;19.98;99.56
59103;BME280;43999;51.660;5.616;2023-09-19T14:04:16;100707.00;;;20.01;100.00
59103;BME280;43999;51.660;5.616;2023-09-19T14:07:19;100707.44;;;20.06;99.41
59103;BME280;43999;51.660;5.616;2023-09-19T14:10:10;100705.91;;;20.04;100.00
59103;BME280;43999;51.660;5.616;2023-09-19T14:13:01;100695.84;;;19.98;99.88
59103;BME280;43999;51.660;5.616;2023-09-19T14:16:06;100713.94;;;19.94;99.58
59103;BME280;43999;51.660;5.616;2023-09-19T14:18:57;100699.91;;;19.92;100.00
59103;BME280;43999;51.660;5.616;2023-09-19T14:21:47;100694.22;;;19.87;100.00
59103;BME280;43999;51.660;5.616;2023-09-19T14:24:35;100705.16;;;19.84;100.00
59103;BME280;43999;51.660;5.616;2023-09-19T14:27:26;100716.22;;;19.79;100.00
59103;BME280;43999;51.660;5.616;2023-09-19T14:30:14;100711.16;;;19.76;100.00
59103;BME280;43999;51.660;5.616;2023-09-19T14:33:04;100703.63;;;19.71;100.00
59103;BME280;43999;51.660;5.616;2023-09-19T14:35:54;100701.81;;;19.72;100.00
59103;BME280;43999;51.660;5.616;2023-09-19T14:38:42;100696.78;;;19.69;100.00
59103;BME280;43999;51.660;5.616;2023-09-19T14:41:30;100697.75;;;19.68;100.00
59103;BME280;43999;51.660;5.616;2023-09-19T14:44:19;100698.19;;;19.63;100.00
59103;BME280;43999;51.660;5.616;2023-09-19T14:47:07;100701.84;;;19.62;100.00
59103;BME280;43999;51.660;5.616;2023-09-19T14:49:55;100684.91;;;19.63;100.00
59103;BME280;43999;51.660;5.616;2023-09-19T14:52:43;100688.53;;;19.62;100.00
59103;BME280;43999;51.660;5.616;2023-09-19T14:55:31;100678.34;;;19.58;100.00
59103;BME280;43999;51.660;5.616;2023-09-19T14:58:23;100673.19;;;19.56;100.00
59103;BME280;43999;51.660;5.616;2023-09-19T15:01:14;100680.19;;;19.57;100.00
59103;BME280;43999;51.660;5.616;2023-09-19T15:04:01;100683.66;;;19.58;100.00
59103;BME280;43999;51.660;5.616;2023-09-19T15:06:49;100672.06;;;19.59;100.00